createdAt,value
2018-05-11T00:00:17.180Z,13.50
2018-05-11T00:02:47.591Z,12.25
2018-05-11T00:05:25.631Z,11.00
2018-05-11T00:08:06.557Z,11.50
2018-05-11T00:10:37.270Z,10.50
2018-05-11T00:13:07.744Z,10.75
2018-05-11T00:15:38.712Z,12.75
2018-05-11T00:18:09.148Z,11.00
2018-05-11T00:20:40.347Z,10.75
2018-05-11T00:23:10.636Z,14.00
2018-05-11T00:25:40.781Z,14.75
2018-05-11T00:28:11.043Z,13.00
2018-05-11T00:30:41.202Z,11.00
2018-05-11T00:33:11.459Z,12.75
2018-05-11T00:35:42.632Z,12.25
2018-05-11T00:38:13.050Z,9.75
2018-05-11T00:40:43.219Z,11.25
2018-05-11T00:43:13.389Z,12.25
2018-05-11T00:45:44.711Z,9.00
2018-05-11T00:48:15.213Z,10.50
2018-05-11T00:50:45.479Z,10.75
2018-05-11T00:53:15.633Z,10.00
2018-05-11T00:55:51.455Z,10.50
2018-05-11T00:58:21.608Z,12.75
2018-05-11T01:00:51.828Z,10.00
2018-05-11T01:03:22.074Z,10.00
2018-05-11T01:05:52.287Z,10.00
2018-05-11T01:08:22.512Z,11.00
2018-05-11T01:10:55.136Z,10.25
2018-05-11T01:13:25.346Z,9.25
2018-05-11T01:15:55.829Z,10.75
2018-05-11T01:18:25.967Z,10.25
2018-05-11T01:20:56.158Z,10.00
2018-05-11T01:23:27.164Z,9.00
2018-05-11T01:25:57.441Z,12.25
2018-05-11T01:28:27.700Z,10.25
2018-05-11T01:30:59.022Z,11.00
2018-05-11T01:33:29.203Z,9.50
2018-05-11T01:35:59.965Z,11.75
2018-05-11T01:38:30.273Z,9.50
2018-05-11T01:41:00.593Z,13.00
2018-05-11T01:43:31.576Z,11.25
2018-05-11T01:46:03.331Z,9.50
2018-05-11T01:48:33.692Z,11.75
2018-05-11T01:51:04.982Z,11.75
2018-05-11T01:53:35.273Z,11.75
2018-05-11T01:56:08.584Z,10.00
2018-05-11T01:58:38.800Z,12.50
2018-05-11T02:01:11.221Z,13.25
2018-05-11T02:03:51.622Z,12.25
2018-05-11T02:06:23.175Z,12.75
2018-05-11T02:08:56.795Z,13.00
2018-05-11T02:11:27.013Z,13.50
2018-05-11T02:13:57.116Z,13.25
2018-05-11T02:16:27.313Z,14.00
2018-05-11T02:18:58.047Z,13.00
2018-05-11T02:21:28.612Z,13.75
2018-05-11T02:23:59.661Z,15.50
2018-05-11T02:26:31.304Z,12.25
2018-05-11T02:29:08.179Z,13.75
2018-05-11T02:31:38.800Z,15.50
2018-05-11T02:34:10.205Z,15.75
2018-05-11T02:36:40.660Z,15.75
2018-05-11T02:39:12.645Z,16.25
2018-05-11T02:41:44.163Z,15.75
2018-05-11T02:44:24.603Z,14.75
2018-05-11T02:46:54.825Z,16.00
2018-05-11T02:49:25.089Z,14.25
2018-05-11T02:51:55.230Z,16.25
2018-05-11T02:54:25.558Z,16.25
2018-05-11T02:56:56.147Z,16.75
2018-05-11T02:59:26.576Z,16.50
2018-05-11T03:01:58.133Z,15.75
2018-05-11T03:04:30.547Z,17.75
2018-05-11T03:07:02.503Z,19.75
2018-05-11T03:09:33.621Z,17.50
2018-05-11T03:12:04.232Z,19.50
2018-05-11T03:14:34.575Z,18.25
2018-05-11T03:17:04.765Z,20.00
2018-05-11T03:19:35.449Z,18.25
2018-05-11T03:22:05.997Z,19.75
2018-05-11T03:24:36.367Z,19.75
2018-05-11T03:27:07.026Z,21.75
2018-05-11T03:29:37.600Z,20.75
2018-05-11T03:32:19.863Z,16.50
2018-05-11T03:34:50.463Z,21.75
2018-05-11T04:22:40.273Z,16.50
2018-05-11T04:25:11.553Z,20.25
2018-05-11T04:27:42.951Z,20.50
2018-05-11T04:30:16.144Z,18.25
2018-05-11T04:32:46.392Z,22.00
2018-05-11T04:35:16.769Z,19.00
2018-05-11T04:37:47.406Z,22.00
2018-05-11T04:40:18.347Z,23.75
2018-05-11T04:42:54.810Z,22.00
2018-05-11T04:45:33.676Z,22.50
2018-05-11T04:48:09.007Z,22.75
2018-05-11T04:50:39.562Z,22.75
2018-05-11T04:53:11.608Z,22.75
2018-05-11T04:55:41.836Z,22.50
2018-05-11T04:58:15.173Z,20.00
2018-05-11T05:00:46.308Z,22.00
2018-05-11T05:03:17.641Z,20.25
2018-05-11T05:05:48.572Z,19.75
2018-05-11T05:08:26.785Z,20.25
2018-05-11T05:10:58.385Z,20.25
2018-05-11T05:13:32.553Z,20.75
2018-05-11T05:16:05.412Z,23.25
2018-05-11T05:18:35.808Z,24.25
2018-05-11T05:21:06.044Z,22.25
2018-05-11T05:23:36.681Z,21.00
2018-05-11T05:26:08.188Z,21.25
2018-05-11T05:28:38.606Z,21.00
2018-05-11T05:31:19.440Z,23.50
2018-05-11T05:34:04.066Z,25.75
2018-05-11T05:36:35.073Z,23.50
2018-05-11T05:39:06.324Z,21.50
2018-05-11T05:41:37.349Z,23.25
2018-05-11T05:44:33.437Z,23.25
2018-05-11T05:47:04.022Z,23.75
2018-05-11T05:49:34.338Z,21.75
2018-05-11T05:52:05.501Z,22.00
2018-05-11T05:54:36.759Z,21.00
2018-05-11T05:57:06.947Z,20.50
2018-05-11T05:59:37.573Z,22.00
2018-05-11T06:02:07.732Z,20.75
2018-05-11T06:04:38.139Z,21.00
2018-05-11T06:07:11.544Z,21.00
2018-05-11T06:09:53.481Z,21.75
2018-05-11T06:21:15.400Z,20.75
2018-05-11T06:23:45.618Z,19.75
2018-05-11T06:26:21.161Z,23.75
2018-05-11T06:29:07.840Z,21.75
2018-05-11T06:31:38.725Z,24.00
2018-05-11T06:34:13.679Z,20.25
2018-05-11T06:36:51.355Z,22.25
2018-05-11T06:39:21.877Z,23.00
2018-05-11T06:41:52.144Z,22.00
2018-05-11T06:44:22.654Z,20.25
2018-05-11T06:46:52.966Z,18.25
2018-05-11T06:49:23.515Z,18.50
2018-05-11T06:51:53.602Z,17.25
2018-05-11T06:54:24.017Z,20.25
2018-05-11T06:56:55.271Z,17.50
2018-05-11T06:59:25.813Z,19.00
2018-05-11T07:01:56.537Z,19.00
2018-05-11T07:04:26.732Z,19.75
2018-05-11T07:06:57.052Z,17.25
2018-05-11T07:09:27.724Z,21.25
2018-05-11T07:11:57.995Z,17.00
2018-05-11T07:14:29.091Z,20.00
2018-05-11T07:16:59.465Z,20.50
2018-05-11T07:19:29.932Z,17.75
2018-05-11T07:22:01.058Z,21.00
2018-05-11T07:24:31.389Z,20.50
2018-05-11T07:27:01.589Z,16.50
2018-05-11T07:29:32.680Z,19.00
2018-05-11T07:32:03.266Z,16.75
2018-05-11T07:34:33.699Z,18.00
2018-05-11T07:37:07.706Z,17.75
2018-05-11T07:39:39.078Z,19.00
2018-05-11T07:42:10.602Z,17.75
2018-05-11T07:44:42.973Z,18.25
2018-05-11T07:47:13.710Z,18.25
2018-05-11T07:49:43.956Z,18.50
2018-05-11T07:52:14.115Z,18.25
2018-05-11T07:54:45.165Z,17.75
2018-05-11T07:57:16.615Z,16.00
2018-05-11T07:59:47.559Z,20.00
2018-05-11T08:02:19.749Z,18.25
2018-05-11T08:04:49.942Z,18.75
2018-05-11T08:07:20.659Z,20.50
2018-05-11T08:10:00.194Z,19.25
2018-05-11T08:12:35.459Z,20.00
2018-05-11T08:15:07.550Z,21.25
2018-05-11T08:17:41.371Z,19.75
2018-05-11T08:20:13.709Z,21.00
2018-05-11T08:22:45.826Z,19.75
2018-05-11T08:25:16.469Z,20.25
2018-05-11T08:27:47.124Z,17.25
2018-05-11T08:30:27.214Z,22.25
2018-05-11T08:32:59.035Z,21.75
2018-05-11T08:35:29.760Z,20.50
2018-05-11T08:38:00.617Z,21.75
2018-05-11T08:40:31.568Z,22.00
2018-05-11T08:43:02.197Z,20.75
2018-05-11T08:48:10.321Z,21.00
2018-05-11T08:50:40.775Z,21.50
2018-05-11T08:53:44.213Z,16.75
2018-05-11T08:56:16.469Z,21.75
2018-05-11T08:58:52.815Z,21.75
2018-05-11T09:01:23.559Z,21.75
2018-05-11T09:03:54.239Z,21.75
2018-05-11T09:06:45.944Z,23.50
2018-05-11T09:09:16.669Z,22.50
2018-05-11T09:11:47.117Z,20.75
2018-05-11T09:16:57.157Z,20.00
2018-05-11T09:19:27.810Z,20.00
2018-05-11T09:22:00.330Z,21.00
2018-05-11T09:24:33.843Z,21.00
2018-05-11T09:27:07.395Z,20.00
2018-05-11T09:29:38.963Z,20.00
2018-05-11T09:32:11.058Z,19.75
2018-05-11T09:34:41.924Z,20.25
2018-05-11T09:37:20.319Z,20.00
2018-05-11T09:39:54.235Z,20.25
2018-05-11T09:42:27.133Z,19.75
2018-05-11T09:44:57.394Z,19.75
2018-05-11T09:47:28.541Z,21.00
2018-05-11T09:49:59.318Z,22.00
2018-05-11T09:52:29.646Z,20.00
2018-05-11T09:55:00.170Z,20.00
2018-05-11T09:57:30.499Z,20.00
2018-05-11T10:00:01.369Z,19.75
2018-05-11T10:02:37.979Z,19.75
2018-05-11T10:05:08.795Z,20.00
2018-05-11T10:07:39.865Z,21.50
2018-05-11T10:10:32.341Z,21.75
2018-05-11T10:13:03.606Z,21.25
2018-05-11T10:15:35.039Z,19.75
2018-05-11T10:18:05.683Z,20.75
2018-05-11T10:20:38.706Z,20.00
2018-05-11T10:23:09.542Z,20.25
2018-05-11T10:25:40.937Z,17.50
2018-05-11T10:28:11.234Z,16.75
2018-05-11T10:30:41.670Z,18.25
2018-05-11T10:33:12.562Z,19.50
2018-05-11T10:35:43.160Z,19.75
2018-05-11T10:38:15.184Z,17.25
2018-05-11T10:40:53.248Z,19.00
2018-05-11T10:43:25.642Z,19.25
2018-05-11T10:45:58.337Z,19.50
2018-05-11T10:48:33.201Z,19.75
2018-05-11T10:51:10.307Z,20.00
2018-05-11T10:53:42.226Z,19.25
2018-05-11T10:56:13.373Z,19.00
2018-05-11T10:58:46.210Z,18.25
2018-05-11T11:01:18.439Z,19.00
2018-05-11T11:03:50.516Z,16.50
2018-05-11T11:06:22.510Z,16.00
2018-05-11T11:08:56.697Z,17.75
2018-05-11T11:11:28.640Z,16.00
2018-05-11T11:14:00.082Z,17.00
2018-05-11T11:16:32.125Z,19.75
2018-05-11T11:19:06.523Z,19.75
2018-05-11T11:21:39.123Z,18.00
2018-05-11T11:24:23.237Z,18.75
2018-05-11T11:27:14.705Z,18.75
2018-05-11T11:29:46.517Z,17.75
2018-05-11T11:32:18.164Z,21.25
2018-05-11T11:34:50.093Z,21.50
2018-05-11T11:37:21.814Z,19.00
2018-05-11T11:39:55.017Z,18.50
2018-05-11T11:42:26.784Z,17.00
2018-05-11T11:44:57.269Z,16.00
2018-05-11T11:47:31.010Z,17.75
2018-05-11T11:50:14.548Z,17.75
2018-05-11T11:52:55.381Z,17.75
2018-05-11T11:55:27.320Z,16.25
2018-05-11T12:03:13.081Z,15.50
2018-05-11T12:05:44.121Z,14.25
2018-05-11T12:08:14.426Z,15.50
2018-05-11T12:10:45.043Z,14.50
2018-05-11T12:13:15.814Z,15.50
2018-05-11T12:15:52.203Z,12.75
2018-05-11T12:18:27.138Z,13.00
2018-05-11T12:20:57.808Z,14.75
2018-05-11T12:23:46.257Z,12.25
2018-05-11T12:26:21.195Z,11.75
2018-05-11T12:29:02.757Z,12.00
2018-05-11T12:31:36.195Z,11.25
2018-05-11T12:34:07.864Z,12.50
2018-05-11T12:36:51.148Z,12.50
2018-05-11T12:39:23.264Z,12.00
2018-05-11T12:41:54.856Z,11.25
2018-05-11T12:44:27.177Z,10.00
2018-05-11T12:46:58.810Z,11.50
2018-05-11T12:49:30.330Z,10.50
2018-05-11T12:52:07.392Z,10.00
2018-05-11T12:54:41.008Z,12.25
2018-05-11T13:00:23.064Z,10.25
2018-05-11T13:02:55.077Z,11.50
2018-05-11T13:05:26.393Z,9.75
2018-05-11T13:07:59.849Z,8.00
2018-05-11T13:10:40.212Z,9.50
2018-05-11T13:13:12.072Z,8.00
2018-05-11T13:15:45.296Z,8.50
2018-05-11T13:18:16.681Z,8.25
2018-05-11T13:20:47.786Z,6.75
2018-05-11T13:23:19.472Z,7.25
2018-05-11T13:25:50.942Z,8.25
2018-05-11T13:28:22.340Z,6.75
2018-05-11T13:30:55.558Z,7.75
2018-05-11T13:33:27.049Z,7.75
2018-05-11T13:35:58.214Z,7.75
2018-05-11T13:38:28.581Z,7.25
2018-05-11T13:40:59.819Z,6.50
2018-05-11T13:43:47.543Z,7.50
2018-05-11T13:46:27.763Z,7.25
2018-05-11T13:49:13.512Z,8.50
2018-05-11T13:51:45.830Z,8.75
2018-05-11T13:54:19.614Z,6.75
2018-05-11T13:57:14.592Z,7.75
2018-05-11T13:59:46.460Z,6.75
2018-05-11T14:02:17.439Z,7.00
2018-05-11T14:04:52.957Z,7.50
2018-05-11T14:07:24.625Z,6.75
2018-05-11T14:09:55.557Z,7.50
2018-05-11T14:12:31.722Z,8.00
2018-05-11T14:15:06.990Z,7.50
2018-05-11T14:17:59.898Z,7.75
2018-05-11T14:20:31.063Z,7.50
2018-05-11T14:23:02.862Z,7.00
2018-05-11T14:25:39.161Z,7.00
2018-05-11T14:32:40.775Z,7.25
2018-05-11T14:37:47.265Z,7.00
2018-05-11T14:40:28.421Z,7.00
2018-05-11T14:43:06.112Z,6.25
2018-05-11T14:45:41.551Z,7.00
2018-05-11T14:48:17.942Z,7.00
2018-05-11T14:50:50.453Z,7.00
2018-05-11T14:53:25.640Z,6.75
2018-05-11T14:56:10.337Z,7.00
2018-05-11T14:58:43.981Z,8.00
2018-05-11T15:01:16.632Z,7.00
2018-05-11T15:03:52.557Z,7.00
2018-05-11T15:06:37.909Z,9.50
2018-05-11T15:09:10.673Z,6.75
2018-05-11T15:11:51.011Z,6.00
2018-05-11T15:14:23.495Z,6.50
2018-05-11T15:16:56.568Z,7.00
2018-05-11T15:19:34.136Z,6.00
2018-05-11T15:22:15.712Z,6.25
2018-05-11T15:24:47.745Z,5.75
2018-05-11T15:27:21.971Z,5.75
2018-05-11T15:29:57.343Z,6.25
2018-05-11T15:32:32.506Z,8.25
2018-05-11T15:35:04.213Z,6.25
2018-05-11T15:40:20.557Z,6.00
2018-05-11T15:42:50.925Z,5.25
2018-05-11T15:45:26.381Z,6.50
2018-05-11T15:48:01.606Z,8.00
2018-05-11T15:50:33.553Z,7.75
2018-05-11T15:53:07.220Z,8.00
2018-05-11T15:55:42.371Z,7.75
2018-05-11T15:58:14.264Z,8.00
2018-05-11T16:00:45.654Z,8.00
2018-05-11T16:03:20.205Z,6.50
2018-05-11T16:05:51.637Z,8.00
2018-05-11T16:08:22.939Z,7.50
2018-05-11T16:10:57.208Z,8.25
2018-05-11T16:13:31.985Z,8.00
2018-05-11T16:16:09.080Z,6.25
2018-05-11T16:18:53.229Z,8.00
2018-05-11T16:21:31.135Z,8.75
2018-05-11T16:24:06.721Z,8.00
2018-05-11T16:26:37.238Z,7.50
2018-05-11T16:29:10.480Z,8.00
2018-05-11T16:31:43.713Z,8.00
2018-05-11T16:34:14.399Z,7.50
2018-05-11T16:36:44.683Z,8.50
2018-05-11T16:39:17.589Z,8.00
2018-05-11T16:41:50.707Z,7.25
2018-05-11T16:44:21.511Z,7.00
2018-05-11T16:46:52.507Z,8.00
2018-05-11T16:49:22.815Z,7.00
2018-05-11T16:51:54.034Z,7.75
2018-05-11T16:54:25.350Z,6.00
2018-05-11T16:56:57.064Z,7.75
2018-05-11T16:59:28.109Z,8.00
2018-05-11T17:02:08.003Z,7.00
2018-05-11T17:04:41.657Z,8.00
2018-05-11T17:07:26.030Z,7.00
2018-05-11T17:10:04.312Z,7.00
2018-05-11T17:12:36.589Z,7.50
2018-05-11T17:15:09.928Z,7.00
2018-05-11T17:17:47.026Z,8.00
2018-05-11T17:20:18.923Z,7.00
2018-05-11T17:22:49.444Z,7.00
2018-05-11T17:25:20.208Z,7.25
2018-05-11T17:27:55.001Z,7.00
2018-05-11T17:30:26.175Z,5.00
2018-05-11T17:32:57.520Z,6.75
2018-05-11T17:35:27.928Z,6.75
2018-05-11T17:44:12.308Z,7.00
2018-05-11T17:46:44.498Z,7.00
2018-05-11T17:49:20.883Z,7.00
2018-05-11T17:51:51.408Z,6.25
2018-05-11T17:54:26.573Z,7.25
2018-05-11T17:56:59.441Z,6.00
2018-05-11T17:59:29.946Z,6.75
2018-05-11T18:02:01.597Z,7.00
2018-05-11T18:04:32.457Z,6.25
2018-05-11T18:07:04.043Z,6.75
2018-05-11T18:09:37.194Z,8.00
2018-05-11T18:12:08.130Z,7.00
2018-05-11T18:14:54.277Z,6.00
2018-05-11T18:17:25.055Z,7.00
2018-05-11T18:19:55.658Z,7.00
2018-05-11T18:22:27.100Z,7.00
2018-05-11T18:25:00.819Z,6.00
2018-05-11T18:27:32.252Z,7.50
2018-05-11T18:30:07.496Z,6.00
2018-05-11T18:32:39.166Z,6.75
2018-05-11T18:35:12.761Z,7.00
2018-05-11T18:37:49.811Z,7.75
2018-05-11T18:40:22.714Z,8.25
2018-05-11T18:42:53.218Z,8.25
2018-05-11T18:45:23.445Z,9.00
2018-05-11T18:47:54.840Z,9.50
2018-05-11T18:50:27.364Z,9.75
2018-05-11T18:52:58.356Z,10.00
2018-05-11T18:55:29.606Z,10.25
2018-05-11T18:58:25.528Z,9.75
2018-05-11T19:00:57.498Z,11.75
2018-05-11T19:05:56.831Z,12.00
2018-05-11T19:08:28.408Z,11.00
2018-05-11T19:11:02.285Z,11.50
2018-05-11T19:13:33.861Z,13.00
2018-05-11T19:16:06.826Z,11.75
2018-05-11T19:18:41.391Z,13.50
2018-05-11T19:21:14.379Z,12.00
2018-05-11T19:23:45.716Z,12.75
2018-05-11T19:26:18.376Z,12.00
2018-05-11T19:28:49.853Z,14.25
2018-05-11T19:31:22.783Z,13.75
2018-05-11T19:36:35.712Z,12.75
2018-05-11T19:39:07.765Z,15.00
2018-05-11T19:41:39.447Z,13.00
2018-05-11T19:44:11.968Z,14.50
2018-05-11T19:46:45.339Z,13.25
2018-05-11T19:49:17.087Z,13.00
2018-05-11T19:51:49.192Z,13.75
2018-05-11T19:54:27.665Z,14.00
2018-05-11T19:57:00.168Z,14.50
2018-05-11T19:59:32.034Z,13.00
2018-05-11T20:02:05.330Z,16.00
2018-05-11T20:04:37.114Z,14.50
2018-05-11T20:07:10.801Z,13.75
2018-05-11T20:09:42.329Z,13.00
2018-05-11T20:12:15.243Z,14.00
2018-05-11T20:14:56.588Z,13.75
2018-05-11T20:17:45.633Z,14.00
2018-05-11T20:20:24.304Z,13.50
2018-05-11T20:22:56.956Z,12.50
2018-05-11T20:25:32.606Z,12.50
2018-05-11T20:28:05.152Z,14.00
2018-05-11T20:30:39.391Z,14.00
2018-05-11T20:35:49.483Z,14.00
2018-05-11T20:38:20.930Z,13.50
2018-05-11T20:43:31.692Z,14.00
2018-05-11T20:48:46.475Z,13.25
2018-05-11T20:51:20.966Z,13.75
2018-05-11T20:53:51.710Z,13.00
2018-05-11T20:56:23.117Z,11.50
2018-05-11T20:59:05.210Z,13.00
2018-05-11T21:01:35.869Z,11.50
2018-05-11T21:04:07.482Z,11.25
2018-05-11T21:06:38.282Z,11.50
2018-05-11T21:12:23.665Z,11.75
2018-05-11T21:14:55.288Z,10.50
2018-05-11T21:17:26.498Z,11.00
2018-05-11T21:19:58.419Z,10.75
2018-05-11T21:25:10.211Z,10.50
2018-05-11T21:27:41.099Z,9.50
2018-05-11T21:30:26.568Z,11.75
2018-05-11T21:32:57.249Z,10.00
2018-05-11T21:35:27.810Z,11.50
2018-05-11T21:38:00.390Z,11.00
2018-05-11T21:40:31.926Z,10.75
2018-05-11T21:43:05.487Z,10.50
2018-05-11T21:45:39.275Z,9.00
2018-05-11T21:48:12.368Z,10.75
2018-05-11T21:50:43.653Z,10.00
2018-05-11T21:53:14.343Z,10.50
2018-05-11T21:55:44.732Z,10.75
2018-05-11T21:58:15.151Z,10.00
2018-05-11T22:00:47.001Z,11.25
2018-05-11T22:03:18.790Z,11.00
2018-05-11T22:05:51.270Z,11.00
2018-05-11T22:08:25.855Z,11.75
2018-05-11T22:10:56.505Z,9.75
2018-05-11T22:13:28.159Z,10.50
2018-05-11T22:16:02.105Z,11.00
2018-05-11T22:18:33.024Z,11.00
2018-05-11T22:21:04.542Z,12.00
2018-05-11T22:23:35.917Z,9.25
2018-05-11T22:26:18.644Z,11.00
2018-05-11T22:28:50.368Z,11.00
2018-05-11T22:31:37.198Z,11.00
2018-05-11T22:34:09.666Z,10.50
2018-05-11T22:36:40.467Z,12.00
2018-05-11T22:39:11.635Z,12.00
2018-05-11T22:41:43.194Z,11.50
2018-05-11T22:44:13.435Z,12.00
2018-05-11T22:46:43.945Z,11.00
2018-05-11T22:49:16.414Z,10.00
2018-05-11T22:51:46.808Z,12.00
2018-05-11T22:54:17.117Z,11.25
2018-05-11T22:56:47.453Z,10.50
2018-05-11T22:59:18.076Z,11.00
2018-05-11T23:01:49.413Z,11.50
2018-05-11T23:04:22.988Z,11.25
2018-05-11T23:06:53.536Z,11.50
2018-05-11T23:09:24.201Z,12.00
2018-05-11T23:11:56.015Z,12.00
2018-05-11T23:14:29.799Z,12.50
2018-05-11T23:20:06.178Z,12.75
2018-05-11T23:22:37.087Z,11.25
2018-05-11T23:25:07.336Z,13.00
2018-05-11T23:27:37.485Z,11.00
2018-05-11T23:30:08.065Z,13.50
2018-05-11T23:32:38.533Z,12.25
2018-05-11T23:35:09.201Z,13.25
2018-05-11T23:37:39.337Z,16.00
2018-05-11T23:40:10.236Z,15.50
2018-05-11T23:42:40.793Z,15.25
2018-05-11T23:45:14.043Z,13.75
2018-05-11T23:47:44.473Z,13.75
2018-05-11T23:50:17.655Z,13.25
2018-05-11T23:52:47.921Z,13.00
2018-05-11T23:55:18.703Z,14.75
2018-05-11T23:57:49.388Z,15.00
